Terminal Aerodrome Forecast
Issued by NWS

Home | Current Version | Previous Version | Text Only | Print | Product List | Glossary On
Versions: 1 2 3 4 5 6 7 8 9 10 11 12 13 14 15 16
000
FTUS41 KPBZ 231800 AAA
TAFMGW
TAF AMD
KMGW 231823Z 2318/2418 21010KT P6SM FEW027
     FM231900 29010KT P6SM -SHRA VCTS BKN035CB
     FM240300 33010KT P6SM BKN025
     FM241600 02008KT P6SM SCT035=

USA.gov is the U.S. government's official web portal to all federal, state and local government web resources and services.